Snel-info
Kleurcode:
Oranje
Jets mogen NIET vliegen, anderen wel.
Uiterste voorzichtigheid geboden!
Laatste update: 24/06/2017
Kleurcode informatie

Grasmaaien:

Geen maaibeurten gepland.

Volgende vliegdagen:

  • vr 21 juli : Nationale feestdag
  • di 15 augustus : OLV Hemelvaart
  • wo 1 november : Allerheiligen
Alle extra vliegdagen

Weersituatie op PMF:

05_Indoormeeting2015_Danny_28.JPG

Huidige weersituatie

Huidig weerbeeld in Kleine Brogel, Belgium
Huidige wind in Kleine Brogel, Belgium

Dit is het bericht voor Kleine Brogel, Belgium en werd 18 minuten geleden gemaakt.
De wind waaide met een snelheid van 5.1 meter per seconde (18.5 km/h) uit het zuidwesten (230°).
De temperatuur was 18 °C. De atmosferische druk was 997 hPa. De relative luchtvochtigheid was 100.0%.
Het was half bewolkt op een hoogte van 335 meter, half bewolkt op een hoogte van 549 meter, en zwaar bewolkt op een hoogte van 762 meter. Het algemene zicht was meer dan 10 kilometer. Momenteel lichte regen.

De onbewerkte METAR gegevens waarop dit bericht is gebaseerd zijn:
EBBL 281155Z 23010KT 9999 -RA SCT011 SCT018 BKN025 18/18 Q0997 GRN WHT TEMPO GRN


Opmerking:
De wind blijkt op PMF meestal iets krachtiger te waaien dan op Kleine Brogel. De windrichting klopt dan weer wel.




KMI

De weersvoorspellingen van het KMI vind je via deze link.


Buienradar

Op www.buienradar.nl kun je zelf zien waar het nu en de komende uren regent.